Talmage, Nebraska
Current Conditions -  °F | °C
As of 2:15 AM on Friday 24 Oct 2014 (Local Time) from KAFK Reporting Station
Haze Haze  
Wind Chill: 56°   Ceiling: Unl
Heat Index: 56°   Visibility: 5mi
Dew Point: 56°   Wind: 7mph
Humidity: 100%   Direction: 200°SSW
Pressure: 30.02"   Gusts: NA
Location:  40.53°N, 96.02°W
Report Text: KAFK 240715Z AUTO 20006KT 5SM BR CLR 13/13 A3002 RMK AO2 T01320132
Loading
Personal Weather Stations






























Interactive Weather Map
Tropical Storm Tracking
New forecast layout! Learn more

10-Day Weather Forecast

Advertisements
Track Severe Weather on mobile